sensor_id;sensor_type;location;lat;lon;timestamp;temperature;humidity
67890;DHT22;54685;52.082;5.426;2023-06-14T00:01:48;19.70;45.50
67890;DHT22;54685;52.082;5.426;2023-06-14T00:04:15;19.70;45.30
67890;DHT22;54685;52.082;5.426;2023-06-14T00:06:47;19.70;45.40
67890;DHT22;54685;52.082;5.426;2023-06-14T00:09:20;19.70;45.30
67890;DHT22;54685;52.082;5.426;2023-06-14T00:11:48;19.70;45.70
67890;DHT22;54685;52.082;5.426;2023-06-14T00:14:14;19.70;45.30
67890;DHT22;54685;52.082;5.426;2023-06-14T00:16:41;19.70;45.40
67890;DHT22;54685;52.082;5.426;2023-06-14T00:19:09;19.70;45.30
67890;DHT22;54685;52.082;5.426;2023-06-14T00:21:38;19.70;45.40
67890;DHT22;54685;52.082;5.426;2023-06-14T00:24:05;19.70;46.50
67890;DHT22;54685;52.082;5.426;2023-06-14T00:26:32;19.70;45.50
67890;DHT22;54685;52.082;5.426;2023-06-14T00:28:59;19.70;45.50
67890;DHT22;54685;52.082;5.426;2023-06-14T00:31:26;19.70;45.70
67890;DHT22;54685;52.082;5.426;2023-06-14T00:33:53;19.60;45.70
67890;DHT22;54685;52.082;5.426;2023-06-14T00:36:20;19.60;45.70
67890;DHT22;54685;52.082;5.426;2023-06-14T00:38:47;19.60;45.90
67890;DHT22;54685;52.082;5.426;2023-06-14T00:41:14;19.50;47.30
67890;DHT22;54685;52.082;5.426;2023-06-14T00:43:42;19.50;46.30
67890;DHT22;54685;52.082;5.426;2023-06-14T00:46:09;19.40;46.30
67890;DHT22;54685;52.082;5.426;2023-06-14T00:48:36;19.40;46.60
67890;DHT22;54685;52.082;5.426;2023-06-14T00:51:05;19.40;46.60
67890;DHT22;54685;52.082;5.426;2023-06-14T00:53:32;19.30;46.90
67890;DHT22;54685;52.082;5.426;2023-06-14T00:56:03;19.30;47.10
67890;DHT22;54685;52.082;5.426;2023-06-14T00:58:30;19.20;47.20
67890;DHT22;54685;52.082;5.426;2023-06-14T01:00:57;19.20;47.30
67890;DHT22;54685;52.082;5.426;2023-06-14T01:03:25;19.20;47.40
67890;DHT22;54685;52.082;5.426;2023-06-14T01:05:56;19.20;47.50
67890;DHT22;54685;52.082;5.426;2023-06-14T01:08:57;19.10;47.90
67890;DHT22;54685;52.082;5.426;2023-06-14T01:11:33;19.00;48.60
67890;DHT22;54685;52.082;5.426;2023-06-14T01:14:03;18.90;48.40
67890;DHT22;54685;52.082;5.426;2023-06-14T01:16:33;18.80;48.50
67890;DHT22;54685;52.082;5.426;2023-06-14T01:19:03;18.80;48.90
67890;DHT22;54685;52.082;5.426;2023-06-14T01:21:31;18.70;49.30
67890;DHT22;54685;52.082;5.426;2023-06-14T01:24:11;18.70;49.80
67890;DHT22;54685;52.082;5.426;2023-06-14T01:26:38;18.60;50.40
67890;DHT22;54685;52.082;5.426;2023-06-14T01:29:13;18.60;50.40
67890;DHT22;54685;52.082;5.426;2023-06-14T01:31:45;18.50;51.00
67890;DHT22;54685;52.082;5.426;2023-06-14T01:34:13;18.40;51.00
67890;DHT22;54685;52.082;5.426;2023-06-14T01:36:43;18.40;51.20
67890;DHT22;54685;52.082;5.426;2023-06-14T01:39:14;18.30;51.40
67890;DHT22;54685;52.082;5.426;2023-06-14T01:41:43;18.30;52.10
67890;DHT22;54685;52.082;5.426;2023-06-14T01:44:12;18.20;51.80
67890;DHT22;54685;52.082;5.426;2023-06-14T01:46:41;18.20;51.70
67890;DHT22;54685;52.082;5.426;2023-06-14T01:49:08;18.20;51.90
67890;DHT22;54685;52.082;5.426;2023-06-14T01:51:35;18.20;51.90
67890;DHT22;54685;52.082;5.426;2023-06-14T01:54:03;18.10;52.30
67890;DHT22;54685;52.082;5.426;2023-06-14T01:56:30;18.10;52.60
67890;DHT22;54685;52.082;5.426;2023-06-14T01:58:58;18.10;52.30
67890;DHT22;54685;52.082;5.426;2023-06-14T02:01:25;18.00;52.70
67890;DHT22;54685;52.082;5.426;2023-06-14T02:03:53;17.90;52.80
67890;DHT22;54685;52.082;5.426;2023-06-14T02:06:20;17.90;53.70
67890;DHT22;54685;52.082;5.426;2023-06-14T02:08:47;17.90;53.90
67890;DHT22;54685;52.082;5.426;2023-06-14T02:11:14;17.80;54.10
67890;DHT22;54685;52.082;5.426;2023-06-14T02:13:41;17.80;54.30
67890;DHT22;54685;52.082;5.426;2023-06-14T02:16:08;17.70;54.30
67890;DHT22;54685;52.082;5.426;2023-06-14T02:18:37;17.60;54.40
67890;DHT22;54685;52.082;5.426;2023-06-14T02:21:04;17.60;54.60
67890;DHT22;54685;52.082;5.426;2023-06-14T02:23:31;17.60;54.40
67890;DHT22;54685;52.082;5.426;2023-06-14T02:26:01;17.50;54.60
67890;DHT22;54685;52.082;5.426;2023-06-14T02:28:29;17.50;55.30
67890;DHT22;54685;52.082;5.426;2023-06-14T02:30:56;17.40;55.00
67890;DHT22;54685;52.082;5.426;2023-06-14T02:33:23;17.40;56.10
67890;DHT22;54685;52.082;5.426;2023-06-14T02:35:52;17.30;56.20
67890;DHT22;54685;52.082;5.426;2023-06-14T02:38:19;17.30;56.40
67890;DHT22;54685;52.082;5.426;2023-06-14T02:40:47;17.20;56.60
67890;DHT22;54685;52.082;5.426;2023-06-14T02:43:14;17.20;56.60
67890;DHT22;54685;52.082;5.426;2023-06-14T02:45:44;17.10;56.80
67890;DHT22;54685;52.082;5.426;2023-06-14T02:48:11;17.10;57.20
67890;DHT22;54685;52.082;5.426;2023-06-14T02:50:40;17.00;57.60
67890;DHT22;54685;52.082;5.426;2023-06-14T02:53:07;17.00;57.70
67890;DHT22;54685;52.082;5.426;2023-06-14T02:55:35;16.90;58.30
67890;DHT22;54685;52.082;5.426;2023-06-14T02:58:06;16.90;58.40
67890;DHT22;54685;52.082;5.426;2023-06-14T03:00:34;16.90;59.70
67890;DHT22;54685;52.082;5.426;2023-06-14T03:03:03;16.80;58.70
67890;DHT22;54685;52.082;5.426;2023-06-14T03:05:47;16.80;59.00
67890;DHT22;54685;52.082;5.426;2023-06-14T03:08:19;16.70;60.00
67890;DHT22;54685;52.082;5.426;2023-06-14T03:10:50;16.60;60.10
67890;DHT22;54685;52.082;5.426;2023-06-14T03:13:17;16.50;60.40
67890;DHT22;54685;52.082;5.426;2023-06-14T03:15:48;16.50;60.60
67890;DHT22;54685;52.082;5.426;2023-06-14T03:18:20;16.50;60.80
67890;DHT22;54685;52.082;5.426;2023-06-14T03:20:54;16.50;60.70
67890;DHT22;54685;52.082;5.426;2023-06-14T03:23:25;16.40;60.90
67890;DHT22;54685;52.082;5.426;2023-06-14T03:25:55;16.40;61.20
67890;DHT22;54685;52.082;5.426;2023-06-14T03:28:23;16.40;61.20
67890;DHT22;54685;52.082;5.426;2023-06-14T03:30:54;16.40;61.20
67890;DHT22;54685;52.082;5.426;2023-06-14T03:33:25;16.30;61.30
67890;DHT22;54685;52.082;5.426;2023-06-14T03:35:53;16.30;61.30
67890;DHT22;54685;52.082;5.426;2023-06-14T03:38:20;16.30;61.60
67890;DHT22;54685;52.082;5.426;2023-06-14T03:40:48;16.30;61.90
67890;DHT22;54685;52.082;5.426;2023-06-14T03:43:15;16.30;61.80
67890;DHT22;54685;52.082;5.426;2023-06-14T03:45:42;16.20;61.80
67890;DHT22;54685;52.082;5.426;2023-06-14T03:48:09;16.20;62.20
67890;DHT22;54685;52.082;5.426;2023-06-14T03:50:36;16.20;62.20
67890;DHT22;54685;52.082;5.426;2023-06-14T03:53:06;16.20;62.20
67890;DHT22;54685;52.082;5.426;2023-06-14T03:55:36;16.20;62.30
67890;DHT22;54685;52.082;5.426;2023-06-14T03:58:25;16.20;62.40
67890;DHT22;54685;52.082;5.426;2023-06-14T04:00:52;16.20;62.50
67890;DHT22;54685;52.082;5.426;2023-06-14T04:03:19;16.20;62.60
67890;DHT22;54685;52.082;5.426;2023-06-14T04:05:46;16.20;62.80
67890;DHT22;54685;52.082;5.426;2023-06-14T04:08:17;16.20;62.60
67890;DHT22;54685;52.082;5.426;2023-06-14T04:10:46;16.20;62.80
67890;DHT22;54685;52.082;5.426;2023-06-14T04:13:15;16.20;62.80
67890;DHT22;54685;52.082;5.426;2023-06-14T04:15:42;16.20;63.20
67890;DHT22;54685;52.082;5.426;2023-06-14T04:18:13;16.20;63.40
67890;DHT22;54685;52.082;5.426;2023-06-14T04:20:40;16.20;63.80
67890;DHT22;54685;52.082;5.426;2023-06-14T04:23:16;16.20;63.80
67890;DHT22;54685;52.082;5.426;2023-06-14T04:25:45;16.20;65.00
67890;DHT22;54685;52.082;5.426;2023-06-14T04:28:13;16.20;64.50
67890;DHT22;54685;52.082;5.426;2023-06-14T04:30:43;16.20;65.00
67890;DHT22;54685;52.082;5.426;2023-06-14T04:33:11;16.20;65.20
67890;DHT22;54685;52.082;5.426;2023-06-14T04:35:38;16.20;65.90
67890;DHT22;54685;52.082;5.426;2023-06-14T04:38:05;16.20;65.50
67890;DHT22;54685;52.082;5.426;2023-06-14T04:40:36;16.20;65.70
67890;DHT22;54685;52.082;5.426;2023-06-14T04:43:10;16.20;66.00
67890;DHT22;54685;52.082;5.426;2023-06-14T04:45:46;16.10;66.30
67890;DHT22;54685;52.082;5.426;2023-06-14T04:48:14;16.20;66.50
67890;DHT22;54685;52.082;5.426;2023-06-14T04:50:41;16.20;66.60
67890;DHT22;54685;52.082;5.426;2023-06-14T04:53:10;16.20;67.30
67890;DHT22;54685;52.082;5.426;2023-06-14T04:55:38;16.10;67.10
67890;DHT22;54685;52.082;5.426;2023-06-14T04:58:05;16.20;67.40
67890;DHT22;54685;52.082;5.426;2023-06-14T05:00:32;16.20;67.50
67890;DHT22;54685;52.082;5.426;2023-06-14T05:02:59;16.20;67.00
67890;DHT22;54685;52.082;5.426;2023-06-14T05:05:27;16.30;67.20
67890;DHT22;54685;52.082;5.426;2023-06-14T05:07:54;16.30;67.50
67890;DHT22;54685;52.082;5.426;2023-06-14T05:10:21;16.40;67.40
67890;DHT22;54685;52.082;5.426;2023-06-14T05:12:48;16.60;66.90
67890;DHT22;54685;52.082;5.426;2023-06-14T05:15:18;16.60;66.60
67890;DHT22;54685;52.082;5.426;2023-06-14T05:17:46;16.70;66.30
67890;DHT22;54685;52.082;5.426;2023-06-14T05:20:24;16.70;66.20
67890;DHT22;54685;52.082;5.426;2023-06-14T05:22:55;16.80;65.90
67890;DHT22;54685;52.082;5.426;2023-06-14T05:25:23;16.90;65.20
67890;DHT22;54685;52.082;5.426;2023-06-14T05:27:50;17.00;65.10
67890;DHT22;54685;52.082;5.426;2023-06-14T05:30:17;17.10;64.60
67890;DHT22;54685;52.082;5.426;2023-06-14T05:32:44;17.20;64.00
67890;DHT22;54685;52.082;5.426;2023-06-14T05:35:11;17.20;63.60
67890;DHT22;54685;52.082;5.426;2023-06-14T05:37:39;17.30;63.30
67890;DHT22;54685;52.082;5.426;2023-06-14T05:40:07;17.40;62.40
67890;DHT22;54685;52.082;5.426;2023-06-14T05:42:35;17.40;62.90
67890;DHT22;54685;52.082;5.426;2023-06-14T05:45:03;17.50;62.90
67890;DHT22;54685;52.082;5.426;2023-06-14T05:47:31;17.60;62.50
67890;DHT22;54685;52.082;5.426;2023-06-14T05:49:58;17.60;62.10
67890;DHT22;54685;52.082;5.426;2023-06-14T05:52:25;17.70;62.50
67890;DHT22;54685;52.082;5.426;2023-06-14T05:54:53;17.70;62.00
67890;DHT22;54685;52.082;5.426;2023-06-14T05:57:20;17.80;61.80
67890;DHT22;54685;52.082;5.426;2023-06-14T05:59:47;17.90;61.60
67890;DHT22;54685;52.082;5.426;2023-06-14T06:02:14;17.90;61.30
67890;DHT22;54685;52.082;5.426;2023-06-14T06:04:41;18.00;60.80
67890;DHT22;54685;52.082;5.426;2023-06-14T06:07:08;18.10;60.50
67890;DHT22;54685;52.082;5.426;2023-06-14T06:09:35;18.20;61.10
67890;DHT22;54685;52.082;5.426;2023-06-14T06:12:03;18.20;60.20
67890;DHT22;54685;52.082;5.426;2023-06-14T06:14:29;18.30;60.30
67890;DHT22;54685;52.082;5.426;2023-06-14T06:16:56;18.30;59.60
67890;DHT22;54685;52.082;5.426;2023-06-14T06:19:23;18.50;59.00
67890;DHT22;54685;52.082;5.426;2023-06-14T06:21:51;18.60;58.90
67890;DHT22;54685;52.082;5.426;2023-06-14T06:24:18;18.70;58.90
67890;DHT22;54685;52.082;5.426;2023-06-14T06:26:45;18.80;58.30
67890;DHT22;54685;52.082;5.426;2023-06-14T06:29:18;18.80;58.10
67890;DHT22;54685;52.082;5.426;2023-06-14T06:31:45;18.90;57.30
67890;DHT22;54685;52.082;5.426;2023-06-14T06:34:15;19.10;56.70
67890;DHT22;54685;52.082;5.426;2023-06-14T06:36:42;19.20;55.70
67890;DHT22;54685;52.082;5.426;2023-06-14T06:39:09;19.30;56.90
67890;DHT22;54685;52.082;5.426;2023-06-14T06:41:43;19.40;55.90
67890;DHT22;54685;52.082;5.426;2023-06-14T06:44:10;19.50;55.20
67890;DHT22;54685;52.082;5.426;2023-06-14T06:46:48;19.60;54.50
67890;DHT22;54685;52.082;5.426;2023-06-14T06:49:15;19.70;53.70
67890;DHT22;54685;52.082;5.426;2023-06-14T06:51:43;19.80;52.20
67890;DHT22;54685;52.082;5.426;2023-06-14T06:54:11;19.90;52.10
67890;DHT22;54685;52.082;5.426;2023-06-14T06:56:38;19.90;52.30
67890;DHT22;54685;52.082;5.426;2023-06-14T06:59:05;20.00;51.40
67890;DHT22;54685;52.082;5.426;2023-06-14T07:01:32;20.10;51.20
67890;DHT22;54685;52.082;5.426;2023-06-14T07:04:00;20.20;51.00
67890;DHT22;54685;52.082;5.426;2023-06-14T07:06:28;20.30;50.90
67890;DHT22;54685;52.082;5.426;2023-06-14T07:08:55;20.30;50.70
67890;DHT22;54685;52.082;5.426;2023-06-14T07:11:28;20.60;50.20
67890;DHT22;54685;52.082;5.426;2023-06-14T07:13:55;20.60;50.00
67890;DHT22;54685;52.082;5.426;2023-06-14T07:16:22;20.70;50.50
67890;DHT22;54685;52.082;5.426;2023-06-14T07:18:50;20.70;50.60
67890;DHT22;54685;52.082;5.426;2023-06-14T07:21:17;20.80;49.80
67890;DHT22;54685;52.082;5.426;2023-06-14T07:23:44;20.90;50.10
67890;DHT22;54685;52.082;5.426;2023-06-14T07:26:13;21.10;48.00
67890;DHT22;54685;52.082;5.426;2023-06-14T07:28:40;21.10;49.00
67890;DHT22;54685;52.082;5.426;2023-06-14T07:31:07;21.20;47.60
67890;DHT22;54685;52.082;5.426;2023-06-14T07:33:34;21.30;47.80
67890;DHT22;54685;52.082;5.426;2023-06-14T07:36:01;21.30;47.80
67890;DHT22;54685;52.082;5.426;2023-06-14T07:38:29;21.50;47.80
67890;DHT22;54685;52.082;5.426;2023-06-14T07:40:56;21.50;47.60
67890;DHT22;54685;52.082;5.426;2023-06-14T07:43:23;21.60;47.80
67890;DHT22;54685;52.082;5.426;2023-06-14T07:45:50;21.70;46.30
67890;DHT22;54685;52.082;5.426;2023-06-14T07:48:33;21.80;46.70
67890;DHT22;54685;52.082;5.426;2023-06-14T07:51:01;21.80;46.90
67890;DHT22;54685;52.082;5.426;2023-06-14T07:53:28;22.00;46.00
67890;DHT22;54685;52.082;5.426;2023-06-14T07:55:55;22.00;45.60
67890;DHT22;54685;52.082;5.426;2023-06-14T07:58:22;22.10;45.70
67890;DHT22;54685;52.082;5.426;2023-06-14T08:00:49;22.20;45.10
67890;DHT22;54685;52.082;5.426;2023-06-14T08:03:16;22.30;44.80
67890;DHT22;54685;52.082;5.426;2023-06-14T08:05:45;22.50;44.00
67890;DHT22;54685;52.082;5.426;2023-06-14T08:08:12;22.60;42.80
67890;DHT22;54685;52.082;5.426;2023-06-14T08:10:39;22.60;43.50
67890;DHT22;54685;52.082;5.426;2023-06-14T08:13:06;22.70;42.80
67890;DHT22;54685;52.082;5.426;2023-06-14T08:15:33;22.80;42.80
67890;DHT22;54685;52.082;5.426;2023-06-14T08:18:00;22.90;42.60
67890;DHT22;54685;52.082;5.426;2023-06-14T08:20:28;23.00;42.10
67890;DHT22;54685;52.082;5.426;2023-06-14T08:22:57;23.20;41.30
67890;DHT22;54685;52.082;5.426;2023-06-14T08:25:24;23.30;40.80
67890;DHT22;54685;52.082;5.426;2023-06-14T08:27:52;23.40;39.30
67890;DHT22;54685;52.082;5.426;2023-06-14T08:30:19;23.50;39.30
67890;DHT22;54685;52.082;5.426;2023-06-14T08:32:46;23.50;39.60
67890;DHT22;54685;52.082;5.426;2023-06-14T08:35:19;23.70;38.90
67890;DHT22;54685;52.082;5.426;2023-06-14T08:37:46;23.80;38.30
67890;DHT22;54685;52.082;5.426;2023-06-14T08:40:22;23.90;39.50
67890;DHT22;54685;52.082;5.426;2023-06-14T08:42:52;24.00;38.10
67890;DHT22;54685;52.082;5.426;2023-06-14T08:45:20;24.20;38.70
67890;DHT22;54685;52.082;5.426;2023-06-14T08:47:51;24.40;38.40
67890;DHT22;54685;52.082;5.426;2023-06-14T08:50:20;24.60;38.50
67890;DHT22;54685;52.082;5.426;2023-06-14T08:52:57;24.70;37.10
67890;DHT22;54685;52.082;5.426;2023-06-14T08:55:27;24.90;37.00
67890;DHT22;54685;52.082;5.426;2023-06-14T08:57:55;25.10;36.80
67890;DHT22;54685;52.082;5.426;2023-06-14T09:00:25;25.10;35.40
67890;DHT22;54685;52.082;5.426;2023-06-14T09:02:55;25.20;33.70
67890;DHT22;54685;52.082;5.426;2023-06-14T09:05:25;25.30;34.10
67890;DHT22;54685;52.082;5.426;2023-06-14T09:07:52;25.40;34.50
67890;DHT22;54685;52.082;5.426;2023-06-14T09:10:22;25.50;35.80
67890;DHT22;54685;52.082;5.426;2023-06-14T09:12:51;25.60;33.30
67890;DHT22;54685;52.082;5.426;2023-06-14T09:15:18;25.80;33.40
67890;DHT22;54685;52.082;5.426;2023-06-14T09:17:45;25.90;32.50
67890;DHT22;54685;52.082;5.426;2023-06-14T09:20:12;26.00;32.60
67890;DHT22;54685;52.082;5.426;2023-06-14T09:22:46;26.10;32.70
67890;DHT22;54685;52.082;5.426;2023-06-14T09:25:13;26.30;33.10
67890;DHT22;54685;52.082;5.426;2023-06-14T09:28:02;26.40;30.80
67890;DHT22;54685;52.082;5.426;2023-06-14T09:30:29;26.60;31.20
67890;DHT22;54685;52.082;5.426;2023-06-14T09:32:56;26.70;30.80
67890;DHT22;54685;52.082;5.426;2023-06-14T09:35:26;26.80;31.10
67890;DHT22;54685;52.082;5.426;2023-06-14T09:37:56;26.70;30.60
67890;DHT22;54685;52.082;5.426;2023-06-14T09:40:23;27.00;31.50
67890;DHT22;54685;52.082;5.426;2023-06-14T09:42:51;27.20;30.80
67890;DHT22;54685;52.082;5.426;2023-06-14T09:45:20;27.30;30.60
67890;DHT22;54685;52.082;5.426;2023-06-14T09:47:49;27.40;30.80
67890;DHT22;54685;52.082;5.426;2023-06-14T09:50:31;27.50;29.60
67890;DHT22;54685;52.082;5.426;2023-06-14T09:53:02;27.70;29.00
67890;DHT22;54685;52.082;5.426;2023-06-14T09:55:31;27.90;30.70
67890;DHT22;54685;52.082;5.426;2023-06-14T09:58:04;28.00;30.40
67890;DHT22;54685;52.082;5.426;2023-06-14T10:00:33;28.20;29.70
67890;DHT22;54685;52.082;5.426;2023-06-14T10:03:13;28.40;29.20
67890;DHT22;54685;52.082;5.426;2023-06-14T10:05:43;28.40;28.60
67890;DHT22;54685;52.082;5.426;2023-06-14T10:08:18;28.70;28.40
67890;DHT22;54685;52.082;5.426;2023-06-14T10:10:47;29.00;28.10
67890;DHT22;54685;52.082;5.426;2023-06-14T10:13:14;29.00;28.20
67890;DHT22;54685;52.082;5.426;2023-06-14T10:16:17;29.10;27.60
67890;DHT22;54685;52.082;5.426;2023-06-14T10:19:18;29.00;27.30
67890;DHT22;54685;52.082;5.426;2023-06-14T10:24:38;29.30;27.70
67890;DHT22;54685;52.082;5.426;2023-06-14T10:27:07;29.50;28.30
67890;DHT22;54685;52.082;5.426;2023-06-14T10:32:23;29.70;27.80
67890;DHT22;54685;52.082;5.426;2023-06-14T10:35:00;29.90;27.40
67890;DHT22;54685;52.082;5.426;2023-06-14T10:37:27;30.10;27.00
67890;DHT22;54685;52.082;5.426;2023-06-14T10:39:54;30.20;26.30
67890;DHT22;54685;52.082;5.426;2023-06-14T10:42:21;30.20;26.30
67890;DHT22;54685;52.082;5.426;2023-06-14T10:44:51;30.00;26.20
67890;DHT22;54685;52.082;5.426;2023-06-14T10:47:31;30.10;26.50
67890;DHT22;54685;52.082;5.426;2023-06-14T10:52:32;30.20;26.10
67890;DHT22;54685;52.082;5.426;2023-06-14T10:57:45;30.40;26.20
67890;DHT22;54685;52.082;5.426;2023-06-14T11:00:22;30.50;26.50
67890;DHT22;54685;52.082;5.426;2023-06-14T11:03:29;30.70;26.50
67890;DHT22;54685;52.082;5.426;2023-06-14T11:05:58;30.40;25.90
67890;DHT22;54685;52.082;5.426;2023-06-14T11:08:53;30.40;26.90
67890;DHT22;54685;52.082;5.426;2023-06-14T11:11:25;30.60;26.40
67890;DHT22;54685;52.082;5.426;2023-06-14T11:13:56;30.70;25.90
67890;DHT22;54685;52.082;5.426;2023-06-14T11:16:26;30.60;25.70
67890;DHT22;54685;52.082;5.426;2023-06-14T11:18:55;30.40;26.30
67890;DHT22;54685;52.082;5.426;2023-06-14T11:21:21;30.60;26.20
67890;DHT22;54685;52.082;5.426;2023-06-14T11:23:52;30.80;26.40
67890;DHT22;54685;52.082;5.426;2023-06-14T11:26:30;30.80;25.70
67890;DHT22;54685;52.082;5.426;2023-06-14T11:28:59;30.60;24.60
67890;DHT22;54685;52.082;5.426;2023-06-14T11:31:27;30.70;25.80
67890;DHT22;54685;52.082;5.426;2023-06-14T11:34:01;30.50;25.70
67890;DHT22;54685;52.082;5.426;2023-06-14T11:36:30;30.40;26.00
67890;DHT22;54685;52.082;5.426;2023-06-14T11:39:02;30.80;26.30
67890;DHT22;54685;52.082;5.426;2023-06-14T11:41:38;31.00;26.60
67890;DHT22;54685;52.082;5.426;2023-06-14T11:44:06;31.10;25.60
67890;DHT22;54685;52.082;5.426;2023-06-14T11:46:34;30.70;25.50
67890;DHT22;54685;52.082;5.426;2023-06-14T11:49:02;30.80;26.20
67890;DHT22;54685;52.082;5.426;2023-06-14T11:51:37;30.80;26.10
67890;DHT22;54685;52.082;5.426;2023-06-14T11:54:06;30.90;25.80
67890;DHT22;54685;52.082;5.426;2023-06-14T11:56:33;31.00;25.70
67890;DHT22;54685;52.082;5.426;2023-06-14T11:59:02;31.30;25.60
67890;DHT22;54685;52.082;5.426;2023-06-14T12:01:30;31.30;25.70
67890;DHT22;54685;52.082;5.426;2023-06-14T12:04:00;31.30;25.70
67890;DHT22;54685;52.082;5.426;2023-06-14T12:06:30;31.20;25.40
67890;DHT22;54685;52.082;5.426;2023-06-14T12:09:03;31.30;25.00
67890;DHT22;54685;52.082;5.426;2023-06-14T12:11:34;30.90;25.80
67890;DHT22;54685;52.082;5.426;2023-06-14T12:14:03;30.80;25.60
67890;DHT22;54685;52.082;5.426;2023-06-14T12:16:34;30.70;24.80
67890;DHT22;54685;52.082;5.426;2023-06-14T12:19:08;30.90;26.30
67890;DHT22;54685;52.082;5.426;2023-06-14T12:21:38;30.70;24.90
67890;DHT22;54685;52.082;5.426;2023-06-14T12:24:07;30.40;24.80
67890;DHT22;54685;52.082;5.426;2023-06-14T12:26:39;30.30;25.70
67890;DHT22;54685;52.082;5.426;2023-06-14T12:29:07;30.30;25.60
67890;DHT22;54685;52.082;5.426;2023-06-14T12:31:34;30.50;25.70
67890;DHT22;54685;52.082;5.426;2023-06-14T12:34:03;30.40;25.30
67890;DHT22;54685;52.082;5.426;2023-06-14T12:36:30;30.30;25.60
67890;DHT22;54685;52.082;5.426;2023-06-14T12:38:58;30.30;25.70
67890;DHT22;54685;52.082;5.426;2023-06-14T12:41:25;30.20;25.70
67890;DHT22;54685;52.082;5.426;2023-06-14T12:43:53;30.30;25.70
67890;DHT22;54685;52.082;5.426;2023-06-14T12:46:20;30.10;24.40
67890;DHT22;54685;52.082;5.426;2023-06-14T12:48:47;30.10;25.50
67890;DHT22;54685;52.082;5.426;2023-06-14T12:51:14;30.00;25.50
67890;DHT22;54685;52.082;5.426;2023-06-14T12:53:41;29.90;25.20
67890;DHT22;54685;52.082;5.426;2023-06-14T12:56:08;29.80;25.60
67890;DHT22;54685;52.082;5.426;2023-06-14T12:58:35;29.50;25.10
67890;DHT22;54685;52.082;5.426;2023-06-14T13:01:02;29.60;25.40
67890;DHT22;54685;52.082;5.426;2023-06-14T13:03:29;29.40;25.30
67890;DHT22;54685;52.082;5.426;2023-06-14T13:05:56;29.40;25.60
67890;DHT22;54685;52.082;5.426;2023-06-14T13:08:23;29.30;25.60
67890;DHT22;54685;52.082;5.426;2023-06-14T13:10:51;29.20;26.10
67890;DHT22;54685;52.082;5.426;2023-06-14T13:13:18;29.20;25.70
67890;DHT22;54685;52.082;5.426;2023-06-14T13:15:45;29.30;26.20
67890;DHT22;54685;52.082;5.426;2023-06-14T13:18:12;29.30;26.60
67890;DHT22;54685;52.082;5.426;2023-06-14T13:20:39;29.40;26.50
67890;DHT22;54685;52.082;5.426;2023-06-14T13:23:07;29.30;26.70
67890;DHT22;54685;52.082;5.426;2023-06-14T13:25:35;29.40;26.70
67890;DHT22;54685;52.082;5.426;2023-06-14T13:28:04;29.40;26.70
67890;DHT22;54685;52.082;5.426;2023-06-14T13:30:32;29.20;26.50
67890;DHT22;54685;52.082;5.426;2023-06-14T13:32:59;29.20;26.50
67890;DHT22;54685;52.082;5.426;2023-06-14T13:35:26;29.20;26.60
67890;DHT22;54685;52.082;5.426;2023-06-14T13:37:53;29.30;27.50
67890;DHT22;54685;52.082;5.426;2023-06-14T13:40:20;29.30;27.20
67890;DHT22;54685;52.082;5.426;2023-06-14T13:42:47;29.10;26.70
67890;DHT22;54685;52.082;5.426;2023-06-14T13:45:15;29.10;26.70
67890;DHT22;54685;52.082;5.426;2023-06-14T13:47:42;29.20;26.30
67890;DHT22;54685;52.082;5.426;2023-06-14T13:50:09;29.10;26.50
67890;DHT22;54685;52.082;5.426;2023-06-14T13:52:36;28.90;26.20
67890;DHT22;54685;52.082;5.426;2023-06-14T13:55:06;28.90;27.50
67890;DHT22;54685;52.082;5.426;2023-06-14T13:57:33;29.10;26.80
67890;DHT22;54685;52.082;5.426;2023-06-14T14:00:00;29.10;26.90
67890;DHT22;54685;52.082;5.426;2023-06-14T14:02:40;29.10;26.80
67890;DHT22;54685;52.082;5.426;2023-06-14T14:05:11;29.00;26.80
67890;DHT22;54685;52.082;5.426;2023-06-14T14:07:38;29.10;27.60
67890;DHT22;54685;52.082;5.426;2023-06-14T14:10:06;29.30;27.50
67890;DHT22;54685;52.082;5.426;2023-06-14T14:12:34;29.20;27.40
67890;DHT22;54685;52.082;5.426;2023-06-14T14:15:01;29.20;27.40
67890;DHT22;54685;52.082;5.426;2023-06-14T14:17:31;29.30;27.60
67890;DHT22;54685;52.082;5.426;2023-06-14T14:19:59;29.20;27.40
67890;DHT22;54685;52.082;5.426;2023-06-14T14:22:26;29.20;25.90
67890;DHT22;54685;52.082;5.426;2023-06-14T14:24:53;29.00;26.60
67890;DHT22;54685;52.082;5.426;2023-06-14T14:27:20;29.00;27.00
67890;DHT22;54685;52.082;5.426;2023-06-14T14:29:47;29.00;26.60
67890;DHT22;54685;52.082;5.426;2023-06-14T14:32:13;29.00;26.80
67890;DHT22;54685;52.082;5.426;2023-06-14T14:34:41;29.00;26.80
67890;DHT22;54685;52.082;5.426;2023-06-14T14:37:08;29.10;27.00
67890;DHT22;54685;52.082;5.426;2023-06-14T14:39:36;29.20;26.50
67890;DHT22;54685;52.082;5.426;2023-06-14T14:42:04;29.20;26.40
67890;DHT22;54685;52.082;5.426;2023-06-14T14:44:30;29.00;26.00
67890;DHT22;54685;52.082;5.426;2023-06-14T14:46:57;28.90;26.60
67890;DHT22;54685;52.082;5.426;2023-06-14T14:49:25;29.00;26.80
67890;DHT22;54685;52.082;5.426;2023-06-14T14:51:52;29.10;27.00
67890;DHT22;54685;52.082;5.426;2023-06-14T14:54:18;29.00;26.70
67890;DHT22;54685;52.082;5.426;2023-06-14T14:56:45;28.90;26.60
67890;DHT22;54685;52.082;5.426;2023-06-14T14:59:12;28.90;27.00
67890;DHT22;54685;52.082;5.426;2023-06-14T15:01:39;28.90;26.70
67890;DHT22;54685;52.082;5.426;2023-06-14T15:04:07;28.90;26.20
67890;DHT22;54685;52.082;5.426;2023-06-14T15:06:34;28.70;26.80
67890;DHT22;54685;52.082;5.426;2023-06-14T15:09:06;28.60;26.10
67890;DHT22;54685;52.082;5.426;2023-06-14T15:11:33;28.50;26.70
67890;DHT22;54685;52.082;5.426;2023-06-14T15:13:59;28.70;27.00
67890;DHT22;54685;52.082;5.426;2023-06-14T15:16:28;28.70;26.70
67890;DHT22;54685;52.082;5.426;2023-06-14T15:18:58;28.60;26.90
67890;DHT22;54685;52.082;5.426;2023-06-14T15:21:25;28.60;26.60
67890;DHT22;54685;52.082;5.426;2023-06-14T15:23:52;28.60;26.90
67890;DHT22;54685;52.082;5.426;2023-06-14T15:26:20;28.60;27.20
67890;DHT22;54685;52.082;5.426;2023-06-14T15:28:47;28.60;27.30
67890;DHT22;54685;52.082;5.426;2023-06-14T15:31:14;28.60;27.30
67890;DHT22;54685;52.082;5.426;2023-06-14T15:33:41;28.60;27.50
67890;DHT22;54685;52.082;5.426;2023-06-14T15:36:10;28.60;27.50
67890;DHT22;54685;52.082;5.426;2023-06-14T15:38:37;28.60;27.50
67890;DHT22;54685;52.082;5.426;2023-06-14T15:41:04;28.50;27.80
67890;DHT22;54685;52.082;5.426;2023-06-14T15:43:31;28.60;28.00
67890;DHT22;54685;52.082;5.426;2023-06-14T15:45:58;28.50;27.90
67890;DHT22;54685;52.082;5.426;2023-06-14T15:48:25;28.50;27.70
67890;DHT22;54685;52.082;5.426;2023-06-14T15:50:52;28.40;27.40
67890;DHT22;54685;52.082;5.426;2023-06-14T15:53:19;28.40;27.90